Главная страница
METAR-TAF:

METAR-TAF

Аэропорты :

Уагадугу, Буркина-Фасо

широта: 12-21N, долгота: 001-31W, высота над уровнем моря: 316 м

Текущие метеонаблюдения

Эта сводка был подготовлена 1 час и 8 минут назад, в 13:00 UTC
Ветер 5 Узел от восточно-юго-восточный, изменяющийся между северо-северо-восточный и южный
Температура 39°C
Влажность 26%
Давление 1010 hPa
Видимость 10 км и более
Отдельные облака на высоте 2600 фута

METAR: DFFD 221300Z 11005KT 030V180 9999 SCT026 39/16 Q1010 NOSIG

Время: 14:08 (14:08 UTC)

Прогноз

Эта сводка был подготовлена 3 часа и 8 минут назад, в 11:00 UTC
Прогноз действительный с 22-го 12 UTC до 23-го 18 UTC
Ветер 8 Узел переменных направлений
Видимость 10 км и более
Нет облачности ниже 1500 м, и нет кучево-дождевой облачности
Вероятность 30% :
временами
С 22-го 22 UTC до 23-го 03 UTC
небольшая облачность на высоте 2600 фута
небольшая облачность на высоте 4000 фута, Кучево-дождевые.
гроза

TAF: DFFD 221100Z 2212/2318 VRB08KT CAVOK PROB30 TEMPO 2222/2303 TS FEW026 FEW040CB

Метеонаблюдения и прогнозы для более 4000 аэропортов (сводки METAR и TAF).

Имеющиеся станции представлены на карте желтыми и красными точками.

Чтобы увидеть название станции, наведите на нее мышь.

Затем щелкните, чтобы увидеть метеонаблюдения и метеопрогнозы.

Управление картой: чтобы увеличить масштаб, щелкните зеленые кнопки с черным крестиком; чтобы уменьшить масштаб, щелкните зеленую кнопку с тире; для просмотра соседних карт щелкайте зеленые стрелки.


METAR-TAF: